sensor_id;sensor_type;location;lat;lon;timestamp;P1;durP1;ratioP1;P2;durP2;ratioP2
31336;SDS011;22846;42.654;23.314;2022-11-20T00:01:09;6.93;;;3.92;;
31336;SDS011;22846;42.654;23.314;2022-11-20T00:03:36;8.38;;;4.35;;
31336;SDS011;22846;42.654;23.314;2022-11-20T00:06:02;7.20;;;4.32;;
31336;SDS011;22846;42.654;23.314;2022-11-20T00:08:29;7.28;;;3.88;;
31336;SDS011;22846;42.654;23.314;2022-11-20T00:10:55;6.75;;;3.97;;
31336;SDS011;22846;42.654;23.314;2022-11-20T00:13:20;6.93;;;3.92;;
31336;SDS011;22846;42.654;23.314;2022-11-20T00:15:46;5.55;;;3.42;;
31336;SDS011;22846;42.654;23.314;2022-11-20T00:18:11;5.70;;;3.67;;
31336;SDS011;22846;42.654;23.314;2022-11-20T00:20:36;7.85;;;3.90;;
31336;SDS011;22846;42.654;23.314;2022-11-20T00:23:02;4.43;;;3.03;;
31336;SDS011;22846;42.654;23.314;2022-11-20T00:25:27;5.47;;;3.45;;
31336;SDS011;22846;42.654;23.314;2022-11-20T00:27:53;4.78;;;3.53;;
31336;SDS011;22846;42.654;23.314;2022-11-20T00:30:18;4.78;;;3.60;;
31336;SDS011;22846;42.654;23.314;2022-11-20T00:32:44;5.00;;;3.63;;
31336;SDS011;22846;42.654;23.314;2022-11-20T00:35:09;5.30;;;3.63;;
31336;SDS011;22846;42.654;23.314;2022-11-20T00:37:35;5.45;;;3.38;;
31336;SDS011;22846;42.654;23.314;2022-11-20T00:40:00;3.95;;;3.10;;
31336;SDS011;22846;42.654;23.314;2022-11-20T00:42:25;5.85;;;3.42;;
31336;SDS011;22846;42.654;23.314;2022-11-20T00:44:51;8.35;;;3.55;;
31336;SDS011;22846;42.654;23.314;2022-11-20T00:47:16;5.75;;;3.60;;
31336;SDS011;22846;42.654;23.314;2022-11-20T00:49:42;5.32;;;3.20;;
31336;SDS011;22846;42.654;23.314;2022-11-20T00:52:07;4.38;;;3.20;;
31336;SDS011;22846;42.654;23.314;2022-11-20T00:54:32;5.43;;;3.30;;
31336;SDS011;22846;42.654;23.314;2022-11-20T00:56:58;4.75;;;3.13;;
31336;SDS011;22846;42.654;23.314;2022-11-20T00:59:23;4.30;;;3.13;;
31336;SDS011;22846;42.654;23.314;2022-11-20T01:01:49;3.28;;;2.35;;
31336;SDS011;22846;42.654;23.314;2022-11-20T01:04:14;5.22;;;3.20;;
31336;SDS011;22846;42.654;23.314;2022-11-20T01:06:39;4.80;;;2.70;;
31336;SDS011;22846;42.654;23.314;2022-11-20T01:09:06;4.15;;;2.85;;
31336;SDS011;22846;42.654;23.314;2022-11-20T01:11:37;3.25;;;2.70;;
31336;SDS011;22846;42.654;23.314;2022-11-20T01:14:06;4.20;;;2.95;;
31336;SDS011;22846;42.654;23.314;2022-11-20T01:16:34;4.60;;;2.90;;
31336;SDS011;22846;42.654;23.314;2022-11-20T01:19:03;6.45;;;2.97;;
31336;SDS011;22846;42.654;23.314;2022-11-20T01:21:30;3.38;;;2.75;;
31336;SDS011;22846;42.654;23.314;2022-11-20T01:23:58;5.50;;;2.45;;
31336;SDS011;22846;42.654;23.314;2022-11-20T01:26:25;4.22;;;2.50;;
31336;SDS011;22846;42.654;23.314;2022-11-20T01:28:55;4.93;;;2.55;;
31336;SDS011;22846;42.654;23.314;2022-11-20T01:31:30;5.78;;;2.55;;
31336;SDS011;22846;42.654;23.314;2022-11-20T01:33:58;5.75;;;2.70;;
31336;SDS011;22846;42.654;23.314;2022-11-20T01:36:26;4.72;;;2.75;;
31336;SDS011;22846;42.654;23.314;2022-11-20T01:38:54;3.45;;;2.30;;
31336;SDS011;22846;42.654;23.314;2022-11-20T01:41:22;3.33;;;2.30;;
31336;SDS011;22846;42.654;23.314;2022-11-20T01:44:07;3.00;;;2.13;;
31336;SDS011;22846;42.654;23.314;2022-11-20T01:46:35;3.53;;;2.30;;
31336;SDS011;22846;42.654;23.314;2022-11-20T01:49:16;3.05;;;2.30;;
31336;SDS011;22846;42.654;23.314;2022-11-20T01:51:55;4.07;;;2.15;;
31336;SDS011;22846;42.654;23.314;2022-11-20T01:56:56;3.72;;;2.35;;
31336;SDS011;22846;42.654;23.314;2022-11-20T01:59:24;3.58;;;2.30;;
31336;SDS011;22846;42.654;23.314;2022-11-20T02:01:51;4.22;;;2.10;;
31336;SDS011;22846;42.654;23.314;2022-11-20T02:04:17;2.70;;;2.00;;
31336;SDS011;22846;42.654;23.314;2022-11-20T02:06:51;3.05;;;1.95;;
31336;SDS011;22846;42.654;23.314;2022-11-20T02:09:23;2.03;;;1.67;;
31336;SDS011;22846;42.654;23.314;2022-11-20T02:11:49;2.50;;;2.00;;
31336;SDS011;22846;42.654;23.314;2022-11-20T02:14:14;2.45;;;1.90;;
31336;SDS011;22846;42.654;23.314;2022-11-20T02:16:43;2.33;;;1.98;;
31336;SDS011;22846;42.654;23.314;2022-11-20T02:27:06;3.20;;;2.17;;
31336;SDS011;22846;42.654;23.314;2022-11-20T02:29:43;2.75;;;2.00;;
31336;SDS011;22846;42.654;23.314;2022-11-20T02:32:20;2.38;;;1.75;;
31336;SDS011;22846;42.654;23.314;2022-11-20T02:34:51;3.65;;;2.00;;
31336;SDS011;22846;42.654;23.314;2022-11-20T02:37:16;3.83;;;2.13;;
31336;SDS011;22846;42.654;23.314;2022-11-20T02:39:43;2.45;;;1.85;;
31336;SDS011;22846;42.654;23.314;2022-11-20T02:42:11;2.97;;;2.20;;
31336;SDS011;22846;42.654;23.314;2022-11-20T02:44:36;2.33;;;1.75;;
31336;SDS011;22846;42.654;23.314;2022-11-20T02:47:01;2.65;;;1.90;;
31336;SDS011;22846;42.654;23.314;2022-11-20T02:49:27;3.13;;;1.85;;
31336;SDS011;22846;42.654;23.314;2022-11-20T02:51:52;2.33;;;1.60;;
31336;SDS011;22846;42.654;23.314;2022-11-20T02:54:18;2.58;;;1.90;;
31336;SDS011;22846;42.654;23.314;2022-11-20T02:56:43;2.83;;;2.20;;
31336;SDS011;22846;42.654;23.314;2022-11-20T02:59:09;3.38;;;1.95;;
31336;SDS011;22846;42.654;23.314;2022-11-20T03:01:34;3.10;;;1.73;;
31336;SDS011;22846;42.654;23.314;2022-11-20T03:04:00;2.20;;;1.70;;
31336;SDS011;22846;42.654;23.314;2022-11-20T03:06:26;1.63;;;1.48;;
31336;SDS011;22846;42.654;23.314;2022-11-20T03:08:51;2.45;;;2.00;;
31336;SDS011;22846;42.654;23.314;2022-11-20T03:11:17;2.80;;;1.60;;
31336;SDS011;22846;42.654;23.314;2022-11-20T03:13:43;3.80;;;2.15;;
31336;SDS011;22846;42.654;23.314;2022-11-20T03:16:15;3.20;;;1.60;;
31336;SDS011;22846;42.654;23.314;2022-11-20T03:18:42;2.38;;;1.60;;
31336;SDS011;22846;42.654;23.314;2022-11-20T03:21:08;2.33;;;1.60;;
31336;SDS011;22846;42.654;23.314;2022-11-20T03:23:35;2.42;;;1.63;;
31336;SDS011;22846;42.654;23.314;2022-11-20T03:26:12;2.38;;;1.60;;
31336;SDS011;22846;42.654;23.314;2022-11-20T03:28:45;2.63;;;2.03;;
31336;SDS011;22846;42.654;23.314;2022-11-20T03:31:13;1.85;;;1.55;;
31336;SDS011;22846;42.654;23.314;2022-11-20T03:33:41;2.13;;;1.67;;
31336;SDS011;22846;42.654;23.314;2022-11-20T03:36:08;2.72;;;2.05;;
31336;SDS011;22846;42.654;23.314;2022-11-20T03:38:35;2.33;;;1.80;;
31336;SDS011;22846;42.654;23.314;2022-11-20T03:41:08;2.58;;;1.63;;
31336;SDS011;22846;42.654;23.314;2022-11-20T03:43:36;2.00;;;1.70;;
31336;SDS011;22846;42.654;23.314;2022-11-20T03:46:02;2.08;;;1.40;;
31336;SDS011;22846;42.654;23.314;2022-11-20T03:48:28;1.92;;;1.70;;
31336;SDS011;22846;42.654;23.314;2022-11-20T03:51:06;1.92;;;1.50;;
31336;SDS011;22846;42.654;23.314;2022-11-20T03:53:36;2.25;;;1.63;;
31336;SDS011;22846;42.654;23.314;2022-11-20T03:56:01;2.47;;;1.67;;
31336;SDS011;22846;42.654;23.314;2022-11-20T03:58:27;1.75;;;1.48;;
31336;SDS011;22846;42.654;23.314;2022-11-20T04:00:52;2.35;;;1.90;;
31336;SDS011;22846;42.654;23.314;2022-11-20T04:03:18;3.53;;;1.60;;
31336;SDS011;22846;42.654;23.314;2022-11-20T04:05:43;2.63;;;1.75;;
31336;SDS011;22846;42.654;23.314;2022-11-20T04:08:09;2.65;;;1.60;;
31336;SDS011;22846;42.654;23.314;2022-11-20T04:10:34;2.65;;;1.55;;
31336;SDS011;22846;42.654;23.314;2022-11-20T04:12:59;1.90;;;1.50;;
31336;SDS011;22846;42.654;23.314;2022-11-20T04:15:25;1.77;;;1.60;;
31336;SDS011;22846;42.654;23.314;2022-11-20T04:17:50;1.83;;;1.52;;
31336;SDS011;22846;42.654;23.314;2022-11-20T04:20:16;3.08;;;1.67;;
31336;SDS011;22846;42.654;23.314;2022-11-20T04:22:41;1.63;;;1.48;;
31336;SDS011;22846;42.654;23.314;2022-11-20T04:25:06;3.38;;;1.60;;
31336;SDS011;22846;42.654;23.314;2022-11-20T04:27:32;1.77;;;1.33;;
31336;SDS011;22846;42.654;23.314;2022-11-20T04:29:58;1.58;;;1.40;;
31336;SDS011;22846;42.654;23.314;2022-11-20T04:32:23;1.75;;;1.48;;
31336;SDS011;22846;42.654;23.314;2022-11-20T04:34:48;1.63;;;1.25;;
31336;SDS011;22846;42.654;23.314;2022-11-20T04:37:14;2.15;;;1.20;;
31336;SDS011;22846;42.654;23.314;2022-11-20T04:39:39;1.20;;;1.00;;
31336;SDS011;22846;42.654;23.314;2022-11-20T04:42:05;1.55;;;1.20;;
31336;SDS011;22846;42.654;23.314;2022-11-20T04:44:49;2.55;;;1.00;;
31336;SDS011;22846;42.654;23.314;2022-11-20T04:47:14;1.48;;;1.13;;
31336;SDS011;22846;42.654;23.314;2022-11-20T04:49:39;1.30;;;1.10;;
31336;SDS011;22846;42.654;23.314;2022-11-20T04:52:05;1.25;;;1.00;;
31336;SDS011;22846;42.654;23.314;2022-11-20T04:54:30;1.30;;;0.98;;
31336;SDS011;22846;42.654;23.314;2022-11-20T04:56:56;1.45;;;1.10;;
31336;SDS011;22846;42.654;23.314;2022-11-20T04:59:21;1.25;;;1.02;;
31336;SDS011;22846;42.654;23.314;2022-11-20T05:01:47;1.35;;;1.10;;
31336;SDS011;22846;42.654;23.314;2022-11-20T05:04:12;1.20;;;1.10;;
31336;SDS011;22846;42.654;23.314;2022-11-20T05:06:38;1.27;;;0.95;;
31336;SDS011;22846;42.654;23.314;2022-11-20T05:09:03;1.45;;;0.90;;
31336;SDS011;22846;42.654;23.314;2022-11-20T05:11:28;1.48;;;1.15;;
31336;SDS011;22846;42.654;23.314;2022-11-20T05:13:54;1.30;;;0.85;;
31336;SDS011;22846;42.654;23.314;2022-11-20T05:16:23;1.40;;;1.00;;
31336;SDS011;22846;42.654;23.314;2022-11-20T05:18:49;1.42;;;0.82;;
31336;SDS011;22846;42.654;23.314;2022-11-20T05:21:16;1.20;;;1.00;;
31336;SDS011;22846;42.654;23.314;2022-11-20T05:23:42;1.00;;;0.90;;
31336;SDS011;22846;42.654;23.314;2022-11-20T05:26:12;1.90;;;1.10;;
31336;SDS011;22846;42.654;23.314;2022-11-20T05:28:39;1.33;;;1.20;;
31336;SDS011;22846;42.654;23.314;2022-11-20T05:31:05;1.17;;;0.85;;
31336;SDS011;22846;42.654;23.314;2022-11-20T05:33:32;3.05;;;1.10;;
31336;SDS011;22846;42.654;23.314;2022-11-20T05:35:58;1.60;;;1.00;;
31336;SDS011;22846;42.654;23.314;2022-11-20T05:38:24;1.20;;;1.00;;
31336;SDS011;22846;42.654;23.314;2022-11-20T05:40:49;1.98;;;0.90;;
31336;SDS011;22846;42.654;23.314;2022-11-20T05:43:15;1.00;;;0.82;;
31336;SDS011;22846;42.654;23.314;2022-11-20T05:45:40;1.05;;;0.85;;
31336;SDS011;22846;42.654;23.314;2022-11-20T05:48:05;1.17;;;0.90;;
31336;SDS011;22846;42.654;23.314;2022-11-20T05:50:31;1.08;;;0.98;;
31336;SDS011;22846;42.654;23.314;2022-11-20T05:52:59;2.38;;;1.10;;
31336;SDS011;22846;42.654;23.314;2022-11-20T05:55:25;2.85;;;1.10;;
31336;SDS011;22846;42.654;23.314;2022-11-20T05:57:52;1.08;;;0.88;;
31336;SDS011;22846;42.654;23.314;2022-11-20T06:00:19;2.38;;;1.00;;
31336;SDS011;22846;42.654;23.314;2022-11-20T06:02:45;1.10;;;0.80;;
31336;SDS011;22846;42.654;23.314;2022-11-20T06:05:10;1.13;;;0.82;;
31336;SDS011;22846;42.654;23.314;2022-11-20T06:07:36;1.17;;;0.80;;
31336;SDS011;22846;42.654;23.314;2022-11-20T06:10:01;1.08;;;0.98;;
31336;SDS011;22846;42.654;23.314;2022-11-20T06:12:27;0.95;;;0.80;;
31336;SDS011;22846;42.654;23.314;2022-11-20T06:14:52;1.88;;;1.05;;
31336;SDS011;22846;42.654;23.314;2022-11-20T06:17:17;1.42;;;1.00;;
31336;SDS011;22846;42.654;23.314;2022-11-20T06:19:43;1.27;;;1.05;;
31336;SDS011;22846;42.654;23.314;2022-11-20T06:22:08;1.02;;;0.93;;
31336;SDS011;22846;42.654;23.314;2022-11-20T06:24:33;1.83;;;0.93;;
31336;SDS011;22846;42.654;23.314;2022-11-20T06:26:59;0.85;;;0.80;;
31336;SDS011;22846;42.654;23.314;2022-11-20T06:29:24;1.30;;;0.98;;
31336;SDS011;22846;42.654;23.314;2022-11-20T06:31:50;1.35;;;1.05;;
31336;SDS011;22846;42.654;23.314;2022-11-20T06:34:15;0.70;;;0.65;;
31336;SDS011;22846;42.654;23.314;2022-11-20T06:36:41;0.80;;;0.80;;
31336;SDS011;22846;42.654;23.314;2022-11-20T06:39:06;1.00;;;0.80;;
31336;SDS011;22846;42.654;23.314;2022-11-20T06:41:31;0.85;;;0.70;;
31336;SDS011;22846;42.654;23.314;2022-11-20T06:43:57;0.80;;;0.75;;
31336;SDS011;22846;42.654;23.314;2022-11-20T06:46:22;1.10;;;0.82;;
31336;SDS011;22846;42.654;23.314;2022-11-20T06:48:48;1.17;;;0.90;;
31336;SDS011;22846;42.654;23.314;2022-11-20T06:51:14;3.95;;;1.30;;
31336;SDS011;22846;42.654;23.314;2022-11-20T06:53:40;1.95;;;1.27;;
31336;SDS011;22846;42.654;23.314;2022-11-20T06:56:06;1.52;;;0.90;;
31336;SDS011;22846;42.654;23.314;2022-11-20T06:58:33;1.10;;;0.82;;
31336;SDS011;22846;42.654;23.314;2022-11-20T07:00:59;1.20;;;1.00;;
31336;SDS011;22846;42.654;23.314;2022-11-20T07:03:26;1.48;;;0.88;;
31336;SDS011;22846;42.654;23.314;2022-11-20T07:05:54;3.47;;;1.10;;
31336;SDS011;22846;42.654;23.314;2022-11-20T07:08:23;1.52;;;1.08;;
31336;SDS011;22846;42.654;23.314;2022-11-20T07:10:49;1.95;;;1.30;;
31336;SDS011;22846;42.654;23.314;2022-11-20T07:13:14;1.30;;;0.90;;
31336;SDS011;22846;42.654;23.314;2022-11-20T07:15:40;1.77;;;1.10;;
31336;SDS011;22846;42.654;23.314;2022-11-20T07:18:05;1.40;;;1.00;;
31336;SDS011;22846;42.654;23.314;2022-11-20T07:20:30;1.23;;;1.00;;
31336;SDS011;22846;42.654;23.314;2022-11-20T07:22:56;1.15;;;1.05;;
31336;SDS011;22846;42.654;23.314;2022-11-20T07:25:23;7.47;;;1.10;;
31336;SDS011;22846;42.654;23.314;2022-11-20T07:27:52;1.95;;;1.10;;
31336;SDS011;22846;42.654;23.314;2022-11-20T07:30:18;1.63;;;1.10;;
31336;SDS011;22846;42.654;23.314;2022-11-20T07:32:47;1.20;;;1.00;;
31336;SDS011;22846;42.654;23.314;2022-11-20T07:35:15;1.58;;;1.13;;
31336;SDS011;22846;42.654;23.314;2022-11-20T07:37:41;1.13;;;0.90;;
31336;SDS011;22846;42.654;23.314;2022-11-20T07:40:06;1.60;;;1.10;;
31336;SDS011;22846;42.654;23.314;2022-11-20T07:42:32;1.77;;;1.13;;
31336;SDS011;22846;42.654;23.314;2022-11-20T07:44:57;3.05;;;0.95;;
31336;SDS011;22846;42.654;23.314;2022-11-20T07:47:24;1.83;;;1.15;;
31336;SDS011;22846;42.654;23.314;2022-11-20T07:49:49;2.90;;;1.45;;
31336;SDS011;22846;42.654;23.314;2022-11-20T07:52:15;3.15;;;1.38;;
31336;SDS011;22846;42.654;23.314;2022-11-20T07:54:40;6.55;;;1.60;;
31336;SDS011;22846;42.654;23.314;2022-11-20T07:57:06;5.57;;;1.33;;
31336;SDS011;22846;42.654;23.314;2022-11-20T07:59:31;6.47;;;1.90;;
31336;SDS011;22846;42.654;23.314;2022-11-20T08:01:56;3.47;;;2.00;;
31336;SDS011;22846;42.654;23.314;2022-11-20T08:04:22;9.43;;;1.90;;
31336;SDS011;22846;42.654;23.314;2022-11-20T08:06:48;5.03;;;1.80;;
31336;SDS011;22846;42.654;23.314;2022-11-20T08:09:14;17.75;;;1.95;;
31336;SDS011;22846;42.654;23.314;2022-11-20T08:11:39;11.35;;;1.95;;
31336;SDS011;22846;42.654;23.314;2022-11-20T08:14:23;13.95;;;2.00;;
31336;SDS011;22846;42.654;23.314;2022-11-20T08:16:49;11.80;;;2.10;;
31336;SDS011;22846;42.654;23.314;2022-11-20T08:19:15;9.43;;;1.80;;
31336;SDS011;22846;42.654;23.314;2022-11-20T08:21:42;10.73;;;1.90;;
31336;SDS011;22846;42.654;23.314;2022-11-20T08:24:08;6.35;;;1.65;;
31336;SDS011;22846;42.654;23.314;2022-11-20T08:26:34;4.80;;;1.40;;
31336;SDS011;22846;42.654;23.314;2022-11-20T08:29:01;8.93;;;1.85;;
31336;SDS011;22846;42.654;23.314;2022-11-20T08:31:28;8.68;;;1.73;;
31336;SDS011;22846;42.654;23.314;2022-11-20T08:33:54;9.15;;;1.38;;
31336;SDS011;22846;42.654;23.314;2022-11-20T08:36:20;5.30;;;1.67;;
31336;SDS011;22846;42.654;23.314;2022-11-20T08:38:55;9.25;;;1.60;;
31336;SDS011;22846;42.654;23.314;2022-11-20T08:41:21;7.65;;;1.60;;
31336;SDS011;22846;42.654;23.314;2022-11-20T08:43:51;7.00;;;1.70;;
31336;SDS011;22846;42.654;23.314;2022-11-20T08:46:17;5.07;;;1.27;;
31336;SDS011;22846;42.654;23.314;2022-11-20T08:48:43;5.80;;;1.52;;
31336;SDS011;22846;42.654;23.314;2022-11-20T08:51:08;3.75;;;1.27;;
31336;SDS011;22846;42.654;23.314;2022-11-20T08:53:34;9.68;;;1.40;;
31336;SDS011;22846;42.654;23.314;2022-11-20T08:55:59;7.25;;;1.20;;
31336;SDS011;22846;42.654;23.314;2022-11-20T08:58:25;5.05;;;1.42;;
31336;SDS011;22846;42.654;23.314;2022-11-20T09:00:51;2.28;;;1.02;;
31336;SDS011;22846;42.654;23.314;2022-11-20T09:03:16;6.50;;;1.38;;
31336;SDS011;22846;42.654;23.314;2022-11-20T09:05:42;5.28;;;1.42;;
31336;SDS011;22846;42.654;23.314;2022-11-20T09:08:07;4.45;;;1.35;;
31336;SDS011;22846;42.654;23.314;2022-11-20T09:10:33;5.32;;;1.35;;
31336;SDS011;22846;42.654;23.314;2022-11-20T09:12:59;4.07;;;1.10;;
31336;SDS011;22846;42.654;23.314;2022-11-20T09:15:25;2.47;;;1.23;;
31336;SDS011;22846;42.654;23.314;2022-11-20T09:17:54;2.25;;;1.20;;
31336;SDS011;22846;42.654;23.314;2022-11-20T09:20:21;4.80;;;1.08;;
31336;SDS011;22846;42.654;23.314;2022-11-20T09:22:47;8.57;;;1.33;;
31336;SDS011;22846;42.654;23.314;2022-11-20T09:25:13;8.27;;;1.50;;
31336;SDS011;22846;42.654;23.314;2022-11-20T09:27:38;5.97;;;1.35;;
31336;SDS011;22846;42.654;23.314;2022-11-20T09:30:04;12.48;;;1.48;;
31336;SDS011;22846;42.654;23.314;2022-11-20T09:32:30;7.75;;;1.30;;
31336;SDS011;22846;42.654;23.314;2022-11-20T09:34:55;4.65;;;1.40;;
31336;SDS011;22846;42.654;23.314;2022-11-20T09:37:21;5.35;;;1.50;;
31336;SDS011;22846;42.654;23.314;2022-11-20T09:39:46;2.70;;;0.80;;
31336;SDS011;22846;42.654;23.314;2022-11-20T09:55:41;3.05;;;1.00;;
31336;SDS011;22846;42.654;23.314;2022-11-20T09:58:11;3.72;;;1.15;;
31336;SDS011;22846;42.654;23.314;2022-11-20T10:00:42;11.52;;;1.67;;
31336;SDS011;22846;42.654;23.314;2022-11-20T10:05:43;4.50;;;1.45;;
31336;SDS011;22846;42.654;23.314;2022-11-20T10:08:16;6.57;;;1.05;;
31336;SDS011;22846;42.654;23.314;2022-11-20T10:10:49;8.02;;;1.25;;
31336;SDS011;22846;42.654;23.314;2022-11-20T10:13:36;6.65;;;1.40;;
31336;SDS011;22846;42.654;23.314;2022-11-20T10:16:26;6.90;;;1.40;;
31336;SDS011;22846;42.654;23.314;2022-11-20T10:21:30;17.33;;;2.58;;
31336;SDS011;22846;42.654;23.314;2022-11-20T10:29:32;6.22;;;1.23;;
31336;SDS011;22846;42.654;23.314;2022-11-20T10:32:04;5.00;;;1.25;;
31336;SDS011;22846;42.654;23.314;2022-11-20T10:35:27;6.00;;;1.10;;
31336;SDS011;22846;42.654;23.314;2022-11-20T10:37:49;8.00;;;1.25;;
31336;SDS011;22846;42.654;23.314;2022-11-20T10:40:53;6.25;;;2.00;;
31336;SDS011;22846;42.654;23.314;2022-11-20T10:43:18;4.05;;;1.17;;
31336;SDS011;22846;42.654;23.314;2022-11-20T10:46:03;3.65;;;1.40;;
31336;SDS011;22846;42.654;23.314;2022-11-20T10:48:33;2.88;;;1.48;;
31336;SDS011;22846;42.654;23.314;2022-11-20T11:00:03;10.33;;;2.00;;
31336;SDS011;22846;42.654;23.314;2022-11-20T11:07:55;11.98;;;3.47;;
31336;SDS011;22846;42.654;23.314;2022-11-20T11:13:23;9.65;;;2.50;;
31336;SDS011;22846;42.654;23.314;2022-11-20T11:15:49;6.88;;;2.60;;
31336;SDS011;22846;42.654;23.314;2022-11-20T11:18:28;10.88;;;2.50;;
31336;SDS011;22846;42.654;23.314;2022-11-20T11:20:57;7.20;;;2.30;;
31336;SDS011;22846;42.654;23.314;2022-11-20T11:23:36;11.65;;;2.15;;
31336;SDS011;22846;42.654;23.314;2022-11-20T11:26:05;10.48;;;2.20;;
31336;SDS011;22846;42.654;23.314;2022-11-20T11:28:42;10.45;;;2.53;;
31336;SDS011;22846;42.654;23.314;2022-11-20T11:31:40;8.43;;;2.70;;
31336;SDS011;22846;42.654;23.314;2022-11-20T11:34:06;6.63;;;2.20;;
31336;SDS011;22846;42.654;23.314;2022-11-20T11:36:36;10.77;;;2.00;;
31336;SDS011;22846;42.654;23.314;2022-11-20T11:39:02;6.70;;;1.92;;
31336;SDS011;22846;42.654;23.314;2022-11-20T11:41:31;6.97;;;2.13;;
31336;SDS011;22846;42.654;23.314;2022-11-20T11:44:16;9.52;;;2.22;;
31336;SDS011;22846;42.654;23.314;2022-11-20T11:47:03;6.60;;;1.90;;
31336;SDS011;22846;42.654;23.314;2022-11-20T11:49:34;4.18;;;1.60;;
31336;SDS011;22846;42.654;23.314;2022-11-20T11:52:16;6.90;;;1.77;;
31336;SDS011;22846;42.654;23.314;2022-11-20T11:54:51;6.50;;;1.95;;
31336;SDS011;22846;42.654;23.314;2022-11-20T11:57:41;7.78;;;2.30;;
31336;SDS011;22846;42.654;23.314;2022-11-20T12:00:14;6.75;;;2.03;;
31336;SDS011;22846;42.654;23.314;2022-11-20T12:07:55;5.35;;;1.33;;
31336;SDS011;22846;42.654;23.314;2022-11-20T12:15:54;4.60;;;1.33;;
31336;SDS011;22846;42.654;23.314;2022-11-20T12:18:20;6.30;;;1.75;;
31336;SDS011;22846;42.654;23.314;2022-11-20T12:24:09;5.97;;;1.55;;
31336;SDS011;22846;42.654;23.314;2022-11-20T12:31:57;3.08;;;1.35;;
31336;SDS011;22846;42.654;23.314;2022-11-20T12:40:24;4.28;;;1.30;;
31336;SDS011;22846;42.654;23.314;2022-11-20T12:43:27;3.88;;;1.05;;
31336;SDS011;22846;42.654;23.314;2022-11-20T13:08:36;3.22;;;1.20;;
31336;SDS011;22846;42.654;23.314;2022-11-20T13:11:12;1.92;;;1.00;;
31336;SDS011;22846;42.654;23.314;2022-11-20T13:19:20;3.13;;;0.90;;
31336;SDS011;22846;42.654;23.314;2022-11-20T13:21:47;1.50;;;0.90;;
31336;SDS011;22846;42.654;23.314;2022-11-20T13:29:43;1.38;;;0.90;;
31336;SDS011;22846;42.654;23.314;2022-11-20T13:34:55;2.10;;;0.80;;
31336;SDS011;22846;42.654;23.314;2022-11-20T13:37:32;1.97;;;0.80;;
31336;SDS011;22846;42.654;23.314;2022-11-20T13:42:31;2.67;;;1.10;;
31336;SDS011;22846;42.654;23.314;2022-11-20T13:45:08;1.80;;;0.95;;
31336;SDS011;22846;42.654;23.314;2022-11-20T13:47:35;1.70;;;0.93;;
31336;SDS011;22846;42.654;23.314;2022-11-20T13:50:02;1.95;;;0.73;;
31336;SDS011;22846;42.654;23.314;2022-11-20T13:58:04;1.95;;;0.73;;
31336;SDS011;22846;42.654;23.314;2022-11-20T14:00:44;1.25;;;0.82;;
31336;SDS011;22846;42.654;23.314;2022-11-20T14:03:19;1.75;;;0.90;;
31336;SDS011;22846;42.654;23.314;2022-11-20T14:05:59;6.25;;;1.40;;
31336;SDS011;22846;42.654;23.314;2022-11-20T14:08:38;3.60;;;1.00;;
31336;SDS011;22846;42.654;23.314;2022-11-20T14:11:17;2.45;;;1.00;;
31336;SDS011;22846;42.654;23.314;2022-11-20T14:13:55;3.50;;;1.05;;
31336;SDS011;22846;42.654;23.314;2022-11-20T14:16:31;4.53;;;1.40;;
31336;SDS011;22846;42.654;23.314;2022-11-20T14:19:17;3.05;;;1.30;;
31336;SDS011;22846;42.654;23.314;2022-11-20T14:21:44;3.30;;;1.50;;
31336;SDS011;22846;42.654;23.314;2022-11-20T14:24:11;7.97;;;1.83;;
31336;SDS011;22846;42.654;23.314;2022-11-20T14:26:37;4.15;;;1.60;;
31336;SDS011;22846;42.654;23.314;2022-11-20T14:29:28;5.43;;;2.50;;
31336;SDS011;22846;42.654;23.314;2022-11-20T14:31:54;14.55;;;7.50;;
31336;SDS011;22846;42.654;23.314;2022-11-20T14:34:22;9.10;;;4.63;;
31336;SDS011;22846;42.654;23.314;2022-11-20T14:36:52;7.53;;;4.25;;
31336;SDS011;22846;42.654;23.314;2022-11-20T14:39:21;8.90;;;3.92;;
31336;SDS011;22846;42.654;23.314;2022-11-20T14:41:51;6.75;;;3.58;;
31336;SDS011;22846;42.654;23.314;2022-11-20T14:44:17;7.60;;;3.83;;
31336;SDS011;22846;42.654;23.314;2022-11-20T14:46:52;5.20;;;3.15;;
31336;SDS011;22846;42.654;23.314;2022-11-20T14:49:20;6.32;;;2.70;;
31336;SDS011;22846;42.654;23.314;2022-11-20T14:51:46;9.43;;;3.42;;
31336;SDS011;22846;42.654;23.314;2022-11-20T14:54:12;9.00;;;3.22;;
31336;SDS011;22846;42.654;23.314;2022-11-20T14:56:40;8.98;;;3.03;;
31336;SDS011;22846;42.654;23.314;2022-11-20T14:59:07;7.05;;;2.70;;
31336;SDS011;22846;42.654;23.314;2022-11-20T15:01:33;3.78;;;2.20;;
31336;SDS011;22846;42.654;23.314;2022-11-20T15:04:06;5.38;;;2.05;;
31336;SDS011;22846;42.654;23.314;2022-11-20T15:06:35;4.57;;;2.13;;
31336;SDS011;22846;42.654;23.314;2022-11-20T15:09:02;4.00;;;2.30;;
31336;SDS011;22846;42.654;23.314;2022-11-20T15:11:30;3.80;;;2.13;;
31336;SDS011;22846;42.654;23.314;2022-11-20T15:13:59;5.30;;;2.08;;
31336;SDS011;22846;42.654;23.314;2022-11-20T15:16:28;6.72;;;3.30;;
31336;SDS011;22846;42.654;23.314;2022-11-20T15:18:54;7.22;;;2.53;;
31336;SDS011;22846;42.654;23.314;2022-11-20T15:21:20;15.45;;;2.90;;
31336;SDS011;22846;42.654;23.314;2022-11-20T15:23:46;8.18;;;2.55;;
31336;SDS011;22846;42.654;23.314;2022-11-20T15:26:12;7.63;;;2.47;;
31336;SDS011;22846;42.654;23.314;2022-11-20T15:28:43;7.38;;;2.20;;
31336;SDS011;22846;42.654;23.314;2022-11-20T15:31:12;9.00;;;2.20;;
31336;SDS011;22846;42.654;23.314;2022-11-20T15:33:40;13.90;;;2.60;;
31336;SDS011;22846;42.654;23.314;2022-11-20T15:36:05;21.77;;;4.85;;
31336;SDS011;22846;42.654;23.314;2022-11-20T15:38:33;12.65;;;3.40;;
31336;SDS011;22846;42.654;23.314;2022-11-20T15:40:59;12.07;;;3.05;;
31336;SDS011;22846;42.654;23.314;2022-11-20T15:43:24;14.05;;;2.78;;
31336;SDS011;22846;42.654;23.314;2022-11-20T15:45:54;14.63;;;2.92;;
31336;SDS011;22846;42.654;23.314;2022-11-20T15:48:43;10.05;;;3.25;;
31336;SDS011;22846;42.654;23.314;2022-11-20T15:51:17;9.45;;;2.80;;
31336;SDS011;22846;42.654;23.314;2022-11-20T15:53:49;9.38;;;2.80;;
31336;SDS011;22846;42.654;23.314;2022-11-20T15:56:15;11.07;;;2.92;;
31336;SDS011;22846;42.654;23.314;2022-11-20T15:58:40;8.63;;;2.47;;
31336;SDS011;22846;42.654;23.314;2022-11-20T16:01:17;10.85;;;2.90;;
31336;SDS011;22846;42.654;23.314;2022-11-20T16:03:45;8.50;;;2.55;;
31336;SDS011;22846;42.654;23.314;2022-11-20T16:06:11;12.27;;;2.65;;
31336;SDS011;22846;42.654;23.314;2022-11-20T16:08:36;6.90;;;2.47;;
31336;SDS011;22846;42.654;23.314;2022-11-20T16:11:02;9.57;;;2.70;;
31336;SDS011;22846;42.654;23.314;2022-11-20T16:13:27;6.00;;;2.38;;
31336;SDS011;22846;42.654;23.314;2022-11-20T16:16:19;5.57;;;2.40;;
31336;SDS011;22846;42.654;23.314;2022-11-20T16:18:47;6.63;;;2.58;;
31336;SDS011;22846;42.654;23.314;2022-11-20T16:21:13;7.47;;;2.83;;
31336;SDS011;22846;42.654;23.314;2022-11-20T16:23:39;9.85;;;2.65;;
31336;SDS011;22846;42.654;23.314;2022-11-20T16:26:12;7.47;;;2.45;;
31336;SDS011;22846;42.654;23.314;2022-11-20T16:28:38;7.10;;;2.55;;
31336;SDS011;22846;42.654;23.314;2022-11-20T16:31:14;6.60;;;2.25;;
31336;SDS011;22846;42.654;23.314;2022-11-20T16:33:41;9.55;;;2.60;;
31336;SDS011;22846;42.654;23.314;2022-11-20T16:36:11;6.32;;;2.33;;
31336;SDS011;22846;42.654;23.314;2022-11-20T16:38:37;5.03;;;2.00;;
31336;SDS011;22846;42.654;23.314;2022-11-20T16:41:03;7.03;;;2.13;;
31336;SDS011;22846;42.654;23.314;2022-11-20T16:43:30;7.18;;;2.53;;